Hauptseite
METAR-TAF:

METAR-TAF

Flughäfen :

Fliegerhorst Holzdorf

Holzdorf, Deutschland

Breite: 51-46N, Länge: 013-11E, Höhe: 79 m

Beobachtung

Neuester Wetterbericht von vor 53 Minuten, um 18:20 UTC
Wind 4 kt aus Süd/Südost
Temperatur 25°C
Luftfeuchtigkeit 32%
Luftdruck 1018 hPa
Sichtweite 10 km oder mehr
Aufgelockert bewölkt in der Höhe von 36000 ft

METAR: ETSH 051820Z 15004KT 9999 SCT360 25/07 Q1018 BLU+

Zeit: 21:13 (19:13 UTC)

Prognose

Neuester Wetterbericht von vor 6 Stunden und 7 Minuten, um 13:06 UTC
Gültige Prognose vom 05 um 14 UTC bis 05 um 23 UTC
Wind 6 kt aus Süd
Sichtweite 10 km oder mehr
Aufgelockert bewölkt in der Höhe von 30000 ft

TAF: ETSH 051306Z 0514/0523 18006KT 9999 NSW SCT300

Wetterbeobachtungen und Prognosen von mehr als 4000 Flughäfen (METAR und TAF Bericht).

Die verfügbaren Stationen werden durch gelbe und rote Markierungen auf der Karte dargestellt.

Führen Sie die Maus auf sie, um den Namen der Station zu sehen.

Darauf klicken, um die Beobachtung von Wetterbeobachtungen und Prognosen zu sehen.

Um die Karte zu ändern : klicken Sie auf den grünen Tasten mit einem schwarzen Kreuz Zum Vergrößern, auf den grünen Button mit einem Gedankenstrich zu verkleinern, oder auf die grünen Pfeile für benachbarte Karten.


METAR-TAF: